createdAt,value
2019-04-01T00:01:02.580Z,6.10
2019-04-01T00:03:31.698Z,6.00
2019-04-01T00:06:02.443Z,6.00
2019-04-01T00:08:31.616Z,6.00
2019-04-01T00:11:00.804Z,5.90
2019-04-01T00:13:30.021Z,5.90
2019-04-01T00:15:59.378Z,5.80
2019-04-01T00:18:28.532Z,5.80
2019-04-01T00:20:57.694Z,5.80
2019-04-01T00:23:26.911Z,5.80
2019-04-01T00:25:56.066Z,5.70
2019-04-01T00:28:25.385Z,5.80
2019-04-01T00:30:54.564Z,5.80
2019-04-01T00:33:23.788Z,5.70
2019-04-01T00:35:52.888Z,5.70
2019-04-01T00:38:22.083Z,5.70
2019-04-01T00:40:51.292Z,5.60
2019-04-01T00:43:29.396Z,5.50
2019-04-01T00:45:59.159Z,5.50
2019-04-01T00:48:28.372Z,5.30
2019-04-01T00:50:57.634Z,5.30
2019-04-01T00:53:26.843Z,5.30
2019-04-01T00:55:56.002Z,5.20
2019-04-01T00:58:25.195Z,5.20
2019-04-01T01:00:54.327Z,5.10
2019-04-01T01:03:23.476Z,5.00
2019-04-01T01:05:52.609Z,5.10
2019-04-01T01:08:21.773Z,5.10
2019-04-01T01:10:50.922Z,5.10
2019-04-01T01:13:20.098Z,5.20
2019-04-01T01:15:49.244Z,5.20
2019-04-01T01:18:18.407Z,5.10
2019-04-01T01:20:47.636Z,5.10
2019-04-01T01:23:16.756Z,5.10
2019-04-01T01:25:45.909Z,5.10
2019-04-01T01:28:15.114Z,5.10
2019-04-01T01:30:44.343Z,5.00
2019-04-01T01:33:13.589Z,5.00
2019-04-01T01:35:42.716Z,5.00
2019-04-01T01:38:11.923Z,4.90
2019-04-01T01:40:41.139Z,4.90
2019-04-01T01:43:10.267Z,4.90
2019-04-01T01:45:39.451Z,4.80
2019-04-01T01:48:08.566Z,4.80
2019-04-01T01:50:37.736Z,4.80
2019-04-01T01:53:06.984Z,4.70
2019-04-01T01:55:36.233Z,4.70
2019-04-01T01:58:05.418Z,4.70
2019-04-01T02:00:35.028Z,4.60
2019-04-01T02:03:04.109Z,4.60
2019-04-01T02:05:34.926Z,4.50
2019-04-01T02:08:04.061Z,4.50
2019-04-01T02:10:33.316Z,4.40
2019-04-01T02:13:02.616Z,4.40
2019-04-01T02:15:31.744Z,4.30
2019-04-01T02:18:00.964Z,4.30
2019-04-01T02:20:30.153Z,4.50
2019-04-01T02:22:59.320Z,4.50
2019-04-01T02:25:28.515Z,4.40
2019-04-01T02:27:58.291Z,4.40
2019-04-01T02:30:27.415Z,4.40
2019-04-01T02:32:56.604Z,4.40
2019-04-01T02:35:25.801Z,4.30
2019-04-01T02:37:55.007Z,4.20
2019-04-01T02:40:24.211Z,4.10
2019-04-01T02:42:53.388Z,4.00
2019-04-01T02:45:22.492Z,3.90
2019-04-01T02:47:51.642Z,3.80
2019-04-01T02:50:20.861Z,3.80
2019-04-01T02:52:50.175Z,3.70
2019-04-01T02:55:19.320Z,3.70
2019-04-01T02:57:48.460Z,3.70
2019-04-01T03:00:17.627Z,3.70
2019-04-01T03:02:46.865Z,3.70
2019-04-01T03:05:16.161Z,3.60
2019-04-01T03:07:45.416Z,3.60
2019-04-01T03:10:14.714Z,3.50
2019-04-01T03:12:43.966Z,3.60
2019-04-01T03:15:13.188Z,3.60
2019-04-01T03:17:42.333Z,3.60
2019-04-01T03:20:11.624Z,3.50
2019-04-01T03:22:40.786Z,3.50
2019-04-01T03:25:09.904Z,3.50
2019-04-01T03:27:39.098Z,3.40
2019-04-01T03:30:08.312Z,3.40
2019-04-01T03:32:44.248Z,3.40
2019-04-01T03:35:08.452Z,3.60
2019-04-01T03:37:37.711Z,3.60
2019-04-01T03:40:07.006Z,3.60
2019-04-01T03:42:36.314Z,3.50
2019-04-01T03:45:05.710Z,3.40
2019-04-01T03:47:34.994Z,3.30
2019-04-01T03:50:04.198Z,3.30
2019-04-01T03:52:33.475Z,3.30
2019-04-01T03:55:02.727Z,3.30
2019-04-01T03:57:31.910Z,3.30
2019-04-01T04:00:01.084Z,3.20
2019-04-01T04:02:30.312Z,3.20
2019-04-01T04:04:59.517Z,3.20
2019-04-01T04:07:28.698Z,3.20
2019-04-01T04:09:57.929Z,3.20
2019-04-01T04:12:27.144Z,3.10
2019-04-01T04:14:56.252Z,3.00
2019-04-01T04:17:25.676Z,3.10
2019-04-01T04:19:54.868Z,3.00
2019-04-01T04:22:24.376Z,2.90
2019-04-01T04:24:53.555Z,3.00
2019-04-01T04:27:22.943Z,2.90
2019-04-01T04:29:52.176Z,2.80
2019-04-01T04:32:21.428Z,2.80
2019-04-01T04:34:50.928Z,2.80
2019-04-01T04:37:20.504Z,2.70
2019-04-01T04:39:49.865Z,2.70
2019-04-01T04:42:19.277Z,2.80
2019-04-01T04:44:48.592Z,2.70
2019-04-01T04:47:17.889Z,2.70
2019-04-01T04:49:47.320Z,2.70
2019-04-01T04:52:16.609Z,2.70
2019-04-01T04:54:46.147Z,2.70
2019-04-01T04:57:15.729Z,2.60
2019-04-01T04:59:45.096Z,2.60
2019-04-01T05:02:14.717Z,2.60
2019-04-01T05:04:44.314Z,2.60
2019-04-01T05:07:13.766Z,2.60
2019-04-01T05:09:43.570Z,2.60
2019-04-01T05:12:13.163Z,2.50
2019-04-01T05:14:42.545Z,2.70
2019-04-01T05:17:12.293Z,2.60
2019-04-01T05:19:41.770Z,2.50
2019-04-01T05:22:11.666Z,2.30
2019-04-01T05:24:41.411Z,2.40
2019-04-01T05:27:10.937Z,2.40
2019-04-01T05:29:40.541Z,2.40
2019-04-01T05:32:25.517Z,2.40
2019-04-01T05:34:56.046Z,2.30
2019-04-01T05:37:35.385Z,2.30
2019-04-01T05:40:09.944Z,2.40
2019-04-01T05:51:54.114Z,2.60
2019-04-01T05:54:23.790Z,2.70
2019-04-01T05:56:53.587Z,2.70
2019-04-01T05:59:31.438Z,2.80
2019-04-01T06:02:09.413Z,2.90
2019-04-01T06:04:39.253Z,3.10
2019-04-01T06:07:12.230Z,3.10
2019-04-01T06:09:42.307Z,3.20
2019-04-01T06:12:12.325Z,3.20
2019-04-01T06:14:42.292Z,3.30
2019-04-01T06:17:12.076Z,3.50
2019-04-01T06:19:44.014Z,3.60
2019-04-01T06:22:19.200Z,3.70
2019-04-01T06:24:49.014Z,3.90
2019-04-01T06:27:21.593Z,4.00
2019-04-01T06:29:51.444Z,4.10
2019-04-01T06:32:21.256Z,4.10
2019-04-01T06:34:54.100Z,4.20
2019-04-01T06:38:09.657Z,4.30
2019-04-01T06:40:42.318Z,4.40
2019-04-01T06:43:12.231Z,4.50
2019-04-01T06:45:42.188Z,4.60
2019-04-01T06:48:11.785Z,4.80
2019-04-01T06:50:41.717Z,4.80
2019-04-01T06:53:11.378Z,5.00
2019-04-01T06:55:41.292Z,5.10
2019-04-01T06:58:12.023Z,5.30
2019-04-01T07:00:41.870Z,5.50
2019-04-01T07:03:21.172Z,5.70
2019-04-01T07:05:51.035Z,6.10
2019-04-01T07:08:21.027Z,6.90
2019-04-01T07:10:50.957Z,7.80
2019-04-01T07:13:20.629Z,8.70
2019-04-01T07:15:50.634Z,9.80
2019-04-01T07:18:20.575Z,10.70
2019-04-01T07:20:50.423Z,11.80
2019-04-01T07:23:20.346Z,12.70
2019-04-01T07:25:50.087Z,13.70
2019-04-01T07:28:20.063Z,14.80
2019-04-01T07:30:52.790Z,15.40
2019-04-01T07:33:23.012Z,15.70
2019-04-01T07:35:56.318Z,16.50
2019-04-01T07:38:26.247Z,17.40
2019-04-01T07:40:59.003Z,18.30
2019-04-01T07:43:27.174Z,18.60
2019-04-01T07:45:59.919Z,19.20
2019-04-01T07:48:28.443Z,19.90
2019-04-01T07:51:01.250Z,20.20
2019-04-01T07:53:30.781Z,20.30
2019-04-01T07:56:02.529Z,20.10
2019-04-01T07:58:32.395Z,20.30
2019-04-01T08:01:02.266Z,21.20
2019-04-01T08:03:33.775Z,21.40
2019-04-01T08:06:03.974Z,21.60
2019-04-01T08:08:34.058Z,22.10
2019-04-01T08:11:23.522Z,22.30
2019-04-01T08:14:05.264Z,20.80
2019-04-01T08:16:35.200Z,22.70
2019-04-01T08:19:04.847Z,23.10
2019-04-01T08:21:34.621Z,22.70
2019-04-01T08:24:07.740Z,22.40
2019-04-01T08:26:37.662Z,23.30
2019-04-01T08:29:07.680Z,22.60
2019-04-01T08:31:37.492Z,22.90
2019-04-01T08:34:07.408Z,23.30
2019-04-01T08:36:37.074Z,23.30
2019-04-01T08:39:11.016Z,23.60
2019-04-01T08:41:40.613Z,23.50
2019-04-01T08:44:10.406Z,23.80
2019-04-01T08:46:39.950Z,24.40
2019-04-01T08:49:09.465Z,24.40
2019-04-01T08:51:39.062Z,24.20
2019-04-01T08:54:08.439Z,24.70
2019-04-01T08:56:38.365Z,25.00
2019-04-01T08:59:07.988Z,24.50
2019-04-01T09:01:37.371Z,24.80
2019-04-01T09:04:06.670Z,24.10
2019-04-01T09:06:35.966Z,23.60
2019-04-01T09:09:07.267Z,23.30
2019-04-01T09:11:38.643Z,24.20
2019-04-01T09:14:08.396Z,24.00
2019-04-01T09:16:37.914Z,24.50
2019-04-01T09:19:07.365Z,24.90
2019-04-01T09:21:36.849Z,24.60
2019-04-01T09:24:06.314Z,24.90
2019-04-01T09:26:35.676Z,23.30
2019-04-01T09:29:05.082Z,23.90
2019-04-01T09:31:34.434Z,24.60
2019-04-01T09:34:03.871Z,25.50
2019-04-01T09:36:33.435Z,22.90
2019-04-01T09:39:04.451Z,24.40
2019-04-01T09:41:33.833Z,24.50
2019-04-01T09:44:03.369Z,24.70
2019-04-01T09:46:32.656Z,23.80
2019-04-01T09:49:02.024Z,23.70
2019-04-01T09:51:31.570Z,24.20
2019-04-01T09:54:00.925Z,24.20
2019-04-01T09:56:30.332Z,24.50
2019-04-01T09:59:00.105Z,23.90
2019-04-01T10:01:29.682Z,24.20
2019-04-01T10:03:59.215Z,24.20
2019-04-01T10:06:28.569Z,23.80
2019-04-01T10:08:57.942Z,24.30
2019-04-01T10:11:27.320Z,24.60
2019-04-01T10:13:56.978Z,24.00
2019-04-01T10:16:26.709Z,24.00
2019-04-01T10:18:56.175Z,24.30
2019-04-01T10:21:25.505Z,24.70
2019-04-01T10:23:54.777Z,24.70
2019-04-01T10:26:24.141Z,24.60
2019-04-01T10:28:53.381Z,24.50
2019-04-01T10:31:22.612Z,24.60
2019-04-01T10:33:51.926Z,24.70
2019-04-01T10:36:21.263Z,24.50
2019-04-01T10:38:50.688Z,24.20
2019-04-01T10:41:20.009Z,24.50
2019-04-01T10:43:49.439Z,25.10
2019-04-01T10:46:18.820Z,24.20
2019-04-01T10:48:48.171Z,24.30
2019-04-01T10:51:17.523Z,23.60
2019-04-01T10:53:46.978Z,23.20
2019-04-01T10:56:16.281Z,23.90
2019-04-01T10:58:45.759Z,24.80
2019-04-01T11:01:14.990Z,24.60
2019-04-01T11:03:44.494Z,24.10
2019-04-01T11:06:13.878Z,23.90
2019-04-01T11:08:43.245Z,24.20
2019-04-01T11:11:12.643Z,23.70
2019-04-01T11:13:41.872Z,23.70
2019-04-01T11:16:11.147Z,23.40
2019-04-01T11:18:40.946Z,24.00
2019-04-01T11:21:10.521Z,23.80
2019-04-01T11:23:39.842Z,23.90
2019-04-01T11:26:09.060Z,24.50
2019-04-01T11:28:38.332Z,23.80
2019-04-01T11:31:07.656Z,24.00
2019-04-01T11:33:36.920Z,24.60
2019-04-01T11:36:06.404Z,24.20
2019-04-01T11:38:35.805Z,24.90
2019-04-01T11:41:05.107Z,24.70
2019-04-01T11:43:35.697Z,23.90
2019-04-01T11:46:05.405Z,23.50
2019-04-01T11:48:34.729Z,24.00
2019-04-01T11:51:03.988Z,23.60
2019-04-01T11:53:33.309Z,23.80
2019-04-01T11:56:02.729Z,24.00
2019-04-01T11:58:31.987Z,24.10
2019-04-01T12:01:01.205Z,24.70
2019-04-01T12:03:30.682Z,25.00
2019-04-01T12:06:00.154Z,24.10
2019-04-01T12:08:30.534Z,25.10
2019-04-01T12:10:59.995Z,25.00
2019-04-01T12:13:29.315Z,24.90
2019-04-01T12:15:58.544Z,24.40
2019-04-01T12:18:27.778Z,25.00
2019-04-01T12:20:57.166Z,24.60
2019-04-01T12:23:26.402Z,24.90
2019-04-01T12:25:55.643Z,25.20
2019-04-01T12:28:24.820Z,24.50
2019-04-01T12:30:54.075Z,25.20
2019-04-01T12:33:25.971Z,24.40
2019-04-01T12:35:54.274Z,24.50
2019-04-01T12:38:23.462Z,24.90
2019-04-01T12:40:52.710Z,24.80
2019-04-01T12:43:23.678Z,25.10
2019-04-01T12:45:52.991Z,24.70
2019-04-01T12:48:25.297Z,25.00
2019-04-01T12:50:53.187Z,24.30
2019-04-01T12:53:22.415Z,24.20
2019-04-01T12:55:51.614Z,24.70
2019-04-01T12:58:23.393Z,24.70
2019-04-01T13:00:51.993Z,25.00
2019-04-01T13:03:21.379Z,24.50
2019-04-01T13:05:50.660Z,25.00
2019-04-01T13:08:19.829Z,25.50
2019-04-01T13:10:50.416Z,25.70
2019-04-01T13:13:22.653Z,25.00
2019-04-01T13:15:50.748Z,25.10
2019-04-01T13:18:20.082Z,25.20
2019-04-01T13:20:51.710Z,24.90
2019-04-01T13:23:20.236Z,25.00
2019-04-01T13:25:49.441Z,25.50
2019-04-01T13:28:18.632Z,25.50
2019-04-01T13:30:48.136Z,25.60
2019-04-01T13:33:17.865Z,25.20
2019-04-01T13:35:47.212Z,25.20
2019-04-01T13:38:16.504Z,25.30
2019-04-01T13:40:45.824Z,25.30
2019-04-01T13:43:18.262Z,25.40
2019-04-01T13:45:47.891Z,25.50
2019-04-01T13:48:18.784Z,25.30
2019-04-01T13:50:49.740Z,25.10
2019-04-01T13:53:19.520Z,24.90
2019-04-01T13:55:48.957Z,24.50
2019-04-01T13:58:18.330Z,25.10
2019-04-01T14:00:48.048Z,25.00
2019-04-01T14:03:18.868Z,25.00
2019-04-01T14:05:48.113Z,24.90
2019-04-01T14:08:22.319Z,25.50
2019-04-01T14:10:51.727Z,25.50
2019-04-01T14:13:29.458Z,25.10
2019-04-01T14:15:58.673Z,24.50
2019-04-01T14:18:27.958Z,24.90
2019-04-01T14:20:57.387Z,24.50
2019-04-01T14:23:29.795Z,24.90
2019-04-01T14:25:59.059Z,25.00
2019-04-01T14:28:28.487Z,24.70
2019-04-01T14:30:59.869Z,24.20
2019-04-01T14:33:35.744Z,24.40
2019-04-01T14:36:05.197Z,24.20
2019-04-01T14:38:34.511Z,24.50
2019-04-01T14:41:05.750Z,24.70
2019-04-01T14:43:54.912Z,24.40
2019-04-01T14:46:22.276Z,24.20
2019-04-01T14:48:51.581Z,23.70
2019-04-01T14:51:20.773Z,23.90
2019-04-01T14:53:50.877Z,23.80
2019-04-01T14:56:21.832Z,24.10
2019-04-01T14:59:07.375Z,24.20
2019-04-01T15:01:59.323Z,23.50
2019-04-01T15:04:32.809Z,23.40
2019-04-01T15:07:02.164Z,23.90
2019-04-01T15:09:32.995Z,23.80
2019-04-01T15:12:02.545Z,23.80
2019-04-01T15:14:31.803Z,23.90
2019-04-01T15:17:01.250Z,23.50
2019-04-01T15:19:39.058Z,23.20
2019-04-01T15:22:08.366Z,23.40
2019-04-01T15:24:40.179Z,23.20
2019-04-01T15:27:12.959Z,23.60
2019-04-01T15:29:42.403Z,23.40
2019-04-01T15:32:11.702Z,23.30
2019-04-01T15:34:42.235Z,22.90
2019-04-01T15:37:11.433Z,22.90
2019-04-01T15:39:43.077Z,22.80
2019-04-01T15:42:11.758Z,22.70
2019-04-01T15:44:41.040Z,22.40
2019-04-01T15:47:10.562Z,22.40
2019-04-01T15:49:44.444Z,22.20
2019-04-01T15:52:13.812Z,21.90
2019-04-01T15:54:45.656Z,21.80
2019-04-01T15:57:15.412Z,21.70
2019-04-01T15:59:53.998Z,21.60
2019-04-01T16:02:27.875Z,21.60
2019-04-01T16:04:57.591Z,21.50
2019-04-01T16:07:29.678Z,21.60
2019-04-01T16:10:04.026Z,20.90
2019-04-01T16:12:36.215Z,21.10
2019-04-01T16:15:12.502Z,21.00
2019-04-01T16:22:00.057Z,20.70
2019-04-01T16:24:44.851Z,20.80
2019-04-01T16:27:15.685Z,20.50
2019-04-01T16:29:49.545Z,20.30
2019-04-01T16:32:19.896Z,20.20
2019-04-01T16:34:53.186Z,19.70
2019-04-01T16:37:28.770Z,19.30
2019-04-01T16:40:03.007Z,19.00
2019-04-01T16:42:36.046Z,18.40
2019-04-01T16:45:10.409Z,18.10
2019-04-01T16:47:40.467Z,17.90
2019-04-01T16:50:11.512Z,18.10
2019-04-01T16:52:41.642Z,17.90
2019-04-01T16:58:17.851Z,17.60
2019-04-01T17:03:59.014Z,17.20
2019-04-01T17:06:34.456Z,16.90
2019-04-01T17:09:05.499Z,16.80
2019-04-01T17:11:35.460Z,16.50
2019-04-01T17:14:08.905Z,16.50
2019-04-01T17:16:37.085Z,16.50
2019-04-01T17:19:07.009Z,16.40
2019-04-01T17:21:36.809Z,16.30
2019-04-01T17:24:11.923Z,16.10
2019-04-01T17:27:05.527Z,16.00
2019-04-01T17:32:12.655Z,15.60
2019-04-01T17:35:07.378Z,15.50
2019-04-01T17:37:40.414Z,15.30
2019-04-01T17:40:36.879Z,15.30
2019-04-01T17:43:09.280Z,15.00
2019-04-01T17:46:33.776Z,14.80
2019-04-01T17:49:19.594Z,14.80
2019-04-01T17:51:53.974Z,14.70
2019-04-01T17:54:25.671Z,14.60
2019-04-01T17:56:58.180Z,14.50
2019-04-01T17:59:27.736Z,14.40
2019-04-01T18:02:00.782Z,14.30
2019-04-01T18:04:40.897Z,14.20
2019-04-01T18:07:13.569Z,14.20
2019-04-01T18:09:46.152Z,14.10
2019-04-01T18:12:15.456Z,14.00
2019-04-01T18:14:44.733Z,13.90
2019-04-01T18:17:14.398Z,13.80
2019-04-01T18:19:43.821Z,13.60
2019-04-01T18:22:13.406Z,13.50
2019-04-01T18:24:42.772Z,13.40
2019-04-01T18:27:12.029Z,13.30
2019-04-01T18:29:44.876Z,13.20
2019-04-01T18:32:14.495Z,13.20
2019-04-01T18:34:50.187Z,13.10
2019-04-01T18:37:21.035Z,13.00
2019-04-01T18:39:57.515Z,12.90
2019-04-01T18:42:26.994Z,12.90
2019-04-01T18:44:56.752Z,12.80
2019-04-01T18:47:26.160Z,12.80
2019-04-01T18:49:55.468Z,12.70
2019-04-01T18:52:24.696Z,12.60
2019-04-01T18:54:53.882Z,12.50
2019-04-01T18:57:23.740Z,12.40
2019-04-01T18:59:53.251Z,12.50
2019-04-01T19:02:24.276Z,12.40
2019-04-01T19:04:53.469Z,12.50
2019-04-01T19:07:22.833Z,12.70
2019-04-01T19:10:05.293Z,12.70
2019-04-01T19:12:23.286Z,12.50
2019-04-01T19:14:52.641Z,12.40
2019-04-01T19:17:22.045Z,12.30
2019-04-01T19:19:51.224Z,12.10
2019-04-01T19:25:09.984Z,12.00
2019-04-01T19:27:39.824Z,11.90
2019-04-01T19:30:09.047Z,11.80
2019-04-01T19:32:38.908Z,11.70
2019-04-01T19:35:09.577Z,11.60
2019-04-01T19:37:38.961Z,11.50
2019-04-01T19:40:08.588Z,11.40
2019-04-01T19:42:40.594Z,11.30
2019-04-01T19:45:11.974Z,11.20
2019-04-01T19:47:41.536Z,11.10
2019-04-01T19:50:10.797Z,11.10
2019-04-01T19:52:40.336Z,11.00
2019-04-01T19:55:10.060Z,11.00
2019-04-01T19:57:40.882Z,10.90
2019-04-01T20:00:10.445Z,10.80
2019-04-01T20:02:39.789Z,10.80
2019-04-01T20:05:28.092Z,10.70
2019-04-01T20:07:57.748Z,10.60
2019-04-01T20:10:28.375Z,10.60
2019-04-01T20:13:00.324Z,10.50
2019-04-01T20:15:29.740Z,10.40
2019-04-01T20:17:59.088Z,10.30
2019-04-01T20:20:28.285Z,10.30
2019-04-01T20:22:57.625Z,10.20
2019-04-01T20:25:26.880Z,10.00
2019-04-01T20:27:56.212Z,10.00
2019-04-01T20:30:25.480Z,10.00
2019-04-01T20:32:54.786Z,10.00
2019-04-01T20:35:28.343Z,9.90
2019-04-01T20:37:58.632Z,9.80
2019-04-01T20:40:28.226Z,9.70
2019-04-01T20:42:57.773Z,9.70
2019-04-01T20:45:27.289Z,9.60
2019-04-01T20:47:56.759Z,9.50
2019-04-01T20:50:26.125Z,9.50
2019-04-01T20:52:55.524Z,9.40
2019-04-01T20:55:24.849Z,9.40
2019-04-01T20:57:54.197Z,9.30
2019-04-01T21:00:23.620Z,9.20
2019-04-01T21:02:52.877Z,9.20
2019-04-01T21:05:21.994Z,9.10
2019-04-01T21:07:51.142Z,9.00
2019-04-01T21:10:20.325Z,9.00
2019-04-01T21:12:49.456Z,8.90
2019-04-01T21:15:19.124Z,8.90
2019-04-01T21:17:48.584Z,8.80
2019-04-01T21:20:18.132Z,8.80
2019-04-01T21:22:47.405Z,8.70
2019-04-01T21:25:16.679Z,8.60
2019-04-01T21:27:45.954Z,8.50
2019-04-01T21:30:15.154Z,8.50
2019-04-01T21:32:45.280Z,8.50
2019-04-01T21:35:14.665Z,8.40
2019-04-01T21:37:44.091Z,8.30
2019-04-01T21:40:13.543Z,8.30
2019-04-01T21:42:43.310Z,8.20
2019-04-01T21:45:12.572Z,8.20
2019-04-01T21:47:41.999Z,8.10
2019-04-01T21:50:11.405Z,8.10
2019-04-01T21:52:40.893Z,8.10
2019-04-01T21:55:10.217Z,8.00
2019-04-01T21:57:40.000Z,7.90
2019-04-01T22:00:10.974Z,7.90
2019-04-01T22:02:40.633Z,7.80
2019-04-01T22:05:10.791Z,7.80
2019-04-01T22:07:40.324Z,7.80
2019-04-01T22:10:09.807Z,7.80
2019-04-01T22:12:39.299Z,7.70
2019-04-01T22:15:08.732Z,7.60
2019-04-01T22:17:38.249Z,7.60
2019-04-01T22:20:14.591Z,7.50
2019-04-01T22:22:48.395Z,7.40
2019-04-01T22:25:14.976Z,7.30
2019-04-01T22:27:52.422Z,7.30
2019-04-01T22:30:22.956Z,7.30
2019-04-01T22:32:54.123Z,7.20
2019-04-01T22:35:37.988Z,7.20
2019-04-01T22:37:58.057Z,7.20
2019-04-01T22:40:27.519Z,7.10
2019-04-01T22:42:57.158Z,7.10
2019-04-01T22:45:26.755Z,7.10
2019-04-01T22:47:56.458Z,7.00
2019-04-01T22:50:26.041Z,7.00
2019-04-01T22:52:55.479Z,7.00
2019-04-01T22:55:24.758Z,7.00
2019-04-01T22:57:54.273Z,6.90
2019-04-01T23:00:23.683Z,6.90
2019-04-01T23:02:53.109Z,6.90
2019-04-01T23:05:22.419Z,6.90
2019-04-01T23:07:51.796Z,6.80
2019-04-01T23:10:21.084Z,6.80
2019-04-01T23:12:51.178Z,6.70
2019-04-01T23:15:21.231Z,6.70
2019-04-01T23:17:51.062Z,6.70
2019-04-01T23:20:20.568Z,6.70
2019-04-01T23:22:50.133Z,6.60
2019-04-01T23:25:19.487Z,6.70
2019-04-01T23:27:49.014Z,6.70
2019-04-01T23:30:19.360Z,6.70
2019-04-01T23:32:49.426Z,6.60
2019-04-01T23:35:20.253Z,6.60
2019-04-01T23:37:49.682Z,6.60
2019-04-01T23:40:19.262Z,6.20
2019-04-01T23:42:48.753Z,6.30
2019-04-01T23:45:27.354Z,6.40
2019-04-01T23:48:05.920Z,6.30
2019-04-01T23:50:35.736Z,6.30
2019-04-01T23:53:05.396Z,6.30
2019-04-01T23:55:34.895Z,6.30
2019-04-01T23:58:04.572Z,6.20
